Time;durP1;ratioP1;P1;durP2;ratioP2;P2;SDS_P1;SDS_P2;PMS_P1;PMS_P2;Temp;Humidity;BMP_temperature;BMP_pressure;BME280_temperature;BME280_humidity;BME280_pressure;Samples;Min_cycle;Max_cycle;Signal;HPM_P1;HPM_P2
2022/10/26 00:00:10;;;;;;;1.67;1.55;;;19.50;60.40;;;;;;5091755;28;20653;-68
2022/10/26 00:02:40;;;;;;;3.17;1.83;;;19.50;60.30;;;;;;5092171;28;20243;-68
2022/10/26 00:05:08;;;;;;;2.05;1.73;;;19.40;60.20;;;;;;5091935;28;20280;-68
2022/10/26 00:07:35;;;;;;;2.10;1.75;;;19.50;60.40;;;;;;5091902;28;20213;-68
2022/10/26 00:10:02;;;;;;;1.85;1.30;;;19.40;60.40;;;;;;5091962;28;20235;-68
2022/10/26 00:12:29;;;;;;;1.63;1.52;;;19.40;60.30;;;;;;5092001;28;20205;-68
2022/10/26 00:14:56;;;;;;;2.35;1.60;;;19.40;60.30;;;;;;5092590;28;20247;-68
2022/10/26 00:17:25;;;;;;;3.13;1.83;;;19.40;60.40;;;;;;5092053;28;20729;-68
2022/10/26 00:19:52;;;;;;;1.60;1.50;;;19.40;60.20;;;;;;5109135;28;20288;-68
2022/10/26 00:22:19;;;;;;;1.52;1.35;;;19.40;60.30;;;;;;5094544;28;20221;-68
2022/10/26 00:24:46;;;;;;;2.53;1.75;;;19.40;60.30;;;;;;5096502;28;20680;-68
2022/10/26 00:27:13;;;;;;;1.92;1.77;;;19.40;60.40;;;;;;5096474;28;20214;-68
2022/10/26 00:29:41;;;;;;;3.15;1.80;;;19.40;60.30;;;;;;5096288;28;20217;-68
2022/10/26 00:32:07;;;;;;;1.73;1.63;;;19.40;60.50;;;;;;5097248;28;20194;-68
2022/10/26 00:34:36;;;;;;;2.47;1.80;;;19.40;60.30;;;;;;5096573;28;20186;-68
2022/10/26 00:37:03;;;;;;;3.80;1.90;;;19.40;60.30;;;;;;5095516;28;20338;-68
2022/10/26 00:39:31;;;;;;;1.83;1.58;;;19.40;60.30;;;;;;5095148;28;20213;-68
2022/10/26 00:41:58;;;;;;;3.05;1.60;;;19.40;60.40;;;;;;5095225;28;20285;-68
2022/10/26 00:44:49;;;;;;;3.25;1.95;;;19.40;60.50;;;;;;5095055;28;20198;-68
2022/10/26 00:47:17;;;;;;;2.03;1.67;;;19.40;60.40;;;;;;5095675;28;20240;-68
2022/10/26 00:49:46;;;;;;;1.90;1.70;;;19.30;60.30;;;;;;5094828;28;20197;-68
2022/10/26 00:52:13;;;;;;;1.70;1.58;;;19.40;60.50;;;;;;5094977;28;20190;-68
2022/10/26 00:54:40;;;;;;;2.83;1.63;;;19.40;60.50;;;;;;5095971;28;20194;-68
2022/10/26 00:57:07;;;;;;;2.20;1.60;;;19.40;60.50;;;;;;5094618;28;20263;-68
2022/10/26 00:59:34;;;;;;;1.85;1.70;;;19.40;60.50;;;;;;5095459;28;20241;-68
2022/10/26 01:02:02;;;;;;;2.67;1.38;;;19.30;60.40;;;;;;5096231;28;20186;-68
2022/10/26 01:04:28;;;;;;;3.50;1.80;;;19.40;60.50;;;;;;5094428;28;20201;-68
2022/10/26 01:06:57;;;;;;;1.88;1.70;;;19.40;60.50;;;;;;5094508;28;20194;-68
2022/10/26 01:09:24;;;;;;;2.05;1.73;;;19.40;60.60;;;;;;5094425;28;20205;-68
2022/10/26 01:11:51;;;;;;;1.70;1.60;;;19.40;60.60;;;;;;5094557;28;20217;-68
2022/10/26 01:14:18;;;;;;;2.65;1.70;;;19.40;60.60;;;;;;5094992;28;20563;-68
2022/10/26 01:16:53;;;;;;;3.72;1.80;;;19.40;60.60;;;;;;5094816;28;20297;-68
2022/10/26 01:19:52;;;;;;;2.33;1.73;;;19.30;60.40;;;;;;5094151;28;20202;-68
2022/10/26 01:22:21;;;;;;;1.42;1.33;;;19.30;60.50;;;;;;5094272;28;20191;-68
2022/10/26 01:25:13;;;;;;;1.77;1.67;;;19.40;60.60;;;;;;5094070;28;20201;-68
2022/10/26 01:27:40;;;;;;;1.63;1.50;;;19.40;60.60;;;;;;5088856;28;20291;-68
2022/10/26 01:30:28;;;;;;;1.58;1.48;;;19.30;60.40;;;;;;5095615;28;20264;-68
2022/10/26 01:33:09;;;;;;;5.10;1.80;;;19.30;60.50;;;;;;5094211;28;20221;-68
2022/10/26 01:35:38;;;;;;;1.90;1.73;;;19.30;60.50;;;;;;5095725;28;20292;-68
2022/10/26 01:38:08;;;;;;;1.63;1.52;;;19.30;60.50;;;;;;5094062;28;20214;-69
2022/10/26 01:40:38;;;;;;;2.10;1.50;;;19.30;60.50;;;;;;5094185;28;20576;-69
2022/10/26 01:43:07;;;;;;;5.50;1.52;;;19.30;60.50;;;;;;5078029;28;20277;-69
2022/10/26 01:45:37;;;;;;;2.97;1.75;;;19.30;60.50;;;;;;5079046;28;20202;-69
2022/10/26 01:48:04;;;;;;;4.15;1.85;;;19.30;60.50;;;;;;5094067;28;20688;-68
2022/10/26 01:50:31;;;;;;;3.58;2.10;;;19.30;60.60;;;;;;5094030;28;20753;-68
2022/10/26 01:52:58;;;;;;;2.10;1.70;;;19.30;60.60;;;;;;5093889;28;20205;-68
2022/10/26 01:55:49;;;;;;;1.75;1.63;;;19.30;60.80;;;;;;5094631;28;20259;-68
2022/10/26 01:58:36;;;;;;;2.92;1.70;;;19.30;60.80;;;;;;5078948;28;20252;-68
2022/10/26 02:01:09;;;;;;;2.47;1.73;;;19.30;60.80;;;;;;5093611;28;20189;-68
2022/10/26 02:03:38;;;;;;;1.70;1.60;;;19.30;60.80;;;;;;5094103;28;20265;-68
2022/10/26 02:06:09;;;;;;;1.65;1.50;;;19.30;60.80;;;;;;5093570;28;20202;-68
2022/10/26 02:08:48;;;;;;;1.58;1.48;;;19.30;60.80;;;;;;5094849;28;20285;-68
2022/10/26 02:11:20;;;;;;;2.80;1.60;;;19.30;60.80;;;;;;5110953;28;20198;-68
2022/10/26 02:13:48;;;;;;;3.95;1.70;;;19.30;60.70;;;;;;5093596;28;20203;-68
2022/10/26 02:16:21;;;;;;;1.70;1.50;;;19.30;60.80;;;;;;5093300;28;20194;-68
2022/10/26 02:18:52;;;;;;;2.80;1.67;;;19.30;60.70;;;;;;5110027;28;20321;-68
2022/10/26 02:21:22;;;;;;;1.95;1.60;;;19.30;60.80;;;;;;5093265;28;20186;-68
2022/10/26 02:23:49;;;;;;;2.80;1.50;;;19.30;60.80;;;;;;5093004;28;20198;-68
2022/10/26 02:26:18;;;;;;;2.00;1.80;;;19.30;60.80;;;;;;5093324;28;20202;-68
2022/10/26 02:28:47;;;;;;;2.17;1.38;;;19.30;60.90;;;;;;5094317;28;20205;-68
2022/10/26 02:31:14;;;;;;;2.30;1.95;;;19.30;61.70;;;;;;5093182;28;20194;-68
2022/10/26 02:33:44;;;;;;;1.80;1.70;;;19.30;60.80;;;;;;5093705;28;20680;-68
2022/10/26 02:36:13;;;;;;;2.17;1.80;;;19.30;60.80;;;;;;5093086;28;20289;-68
2022/10/26 02:38:40;;;;;;;2.40;1.70;;;19.30;60.70;;;;;;5093761;28;20260;-68
2022/10/26 02:41:08;;;;;;;1.60;1.50;;;19.30;60.70;;;;;;5093604;28;20293;-68
2022/10/26 02:43:36;;;;;;;4.00;1.60;;;19.30;60.70;;;;;;5093528;28;20222;-68
2022/10/26 02:46:06;;;;;;;1.88;1.55;;;19.30;60.70;;;;;;5097964;28;20195;-68
2022/10/26 02:48:34;;;;;;;2.20;1.77;;;19.30;60.70;;;;;;5097669;28;20214;-68
2022/10/26 02:51:03;;;;;;;1.70;1.50;;;19.30;60.60;;;;;;5096803;28;20255;-68
2022/10/26 02:53:32;;;;;;;2.83;1.80;;;19.30;60.70;;;;;;5107273;28;20285;-68
2022/10/26 02:56:00;;;;;;;4.95;1.70;;;19.30;60.60;;;;;;5117700;28;20182;-68
2022/10/26 02:58:29;;;;;;;3.80;1.60;;;19.20;60.60;;;;;;5102044;28;20232;-68
2022/10/26 03:00:57;;;;;;;3.42;1.63;;;19.30;60.70;;;;;;5093806;28;20570;-68
2022/10/26 03:03:24;;;;;;;3.95;1.60;;;19.20;60.50;;;;;;5093375;28;20194;-68
2022/10/26 03:05:51;;;;;;;2.95;1.92;;;19.30;60.70;;;;;;5093436;28;20196;-68
2022/10/26 03:08:20;;;;;;;1.60;1.50;;;19.30;60.50;;;;;;5093323;28;20214;-68
2022/10/26 03:10:47;;;;;;;1.95;1.67;;;19.30;60.40;;;;;;5094744;28;20186;-68
2022/10/26 03:13:14;;;;;;;2.95;1.75;;;19.30;60.50;;;;;;5094320;28;20224;-68
2022/10/26 03:15:41;;;;;;;2.33;1.88;;;19.30;60.50;;;;;;5093411;28;20648;-68
2022/10/26 03:18:08;;;;;;;2.92;1.80;;;19.30;61.30;;;;;;5092864;28;20655;-68
2022/10/26 03:20:35;;;;;;;2.38;1.85;;;19.30;60.40;;;;;;5093078;28;20651;-68
2022/10/26 03:23:02;;;;;;;1.98;1.70;;;19.30;60.80;;;;;;5093367;28;20661;-68
2022/10/26 03:25:30;;;;;;;1.60;1.50;;;19.20;60.60;;;;;;5092946;28;20197;-68
2022/10/26 03:27:58;;;;;;;3.30;1.90;;;19.30;60.70;;;;;;5092551;28;20300;-68
2022/10/26 03:30:25;;;;;;;1.63;1.52;;;19.40;60.60;;;;;;5093946;28;20182;-68
2022/10/26 03:32:52;;;;;;;2.33;1.60;;;19.40;60.50;;;;;;5093825;28;20601;-68
2022/10/26 03:35:19;;;;;;;1.90;1.70;;;19.40;60.20;;;;;;5093492;28;20236;-68
2022/10/26 03:37:46;;;;;;;3.90;1.88;;;19.50;60.20;;;;;;5092296;28;20229;-68
2022/10/26 03:40:13;;;;;;;1.80;1.70;;;19.50;60.10;;;;;;5092023;28;20250;-68
2022/10/26 03:42:42;;;;;;;3.83;1.90;;;19.50;60.00;;;;;;5093603;28;20196;-68
2022/10/26 03:45:10;;;;;;;2.72;1.67;;;19.60;60.00;;;;;;5092549;28;20198;-68
2022/10/26 03:47:43;;;;;;;2.00;1.67;;;19.60;59.90;;;;;;5093236;28;20296;-68
2022/10/26 03:50:10;;;;;;;1.90;1.60;;;19.60;59.90;;;;;;5092078;28;20218;-68
2022/10/26 03:52:37;;;;;;;1.70;1.60;;;19.60;59.80;;;;;;5091936;28;20737;-68
2022/10/26 03:55:05;;;;;;;2.45;1.80;;;19.60;59.70;;;;;;5092023;28;20204;-68
2022/10/26 03:57:32;;;;;;;3.60;2.00;;;19.60;59.60;;;;;;5094127;28;20267;-69
2022/10/26 04:00:00;;;;;;;2.30;2.10;;;19.60;59.60;;;;;;5096992;28;20263;-69
2022/10/26 04:02:27;;;;;;;2.10;1.90;;;19.60;59.60;;;;;;5097107;28;20186;-68
2022/10/26 04:04:54;;;;;;;1.90;1.70;;;19.60;59.60;;;;;;5095813;28;20217;-68
2022/10/26 04:07:21;;;;;;;2.67;2.13;;;19.70;59.70;;;;;;5097410;28;20265;-68
2022/10/26 04:09:48;;;;;;;2.55;1.75;;;19.70;59.60;;;;;;5095569;28;20194;-68
2022/10/26 04:12:16;;;;;;;2.03;1.92;;;19.60;59.50;;;;;;5096957;28;20186;-68
2022/10/26 04:14:44;;;;;;;2.10;1.90;;;19.60;59.40;;;;;;5095388;28;20194;-68
2022/10/26 04:17:13;;;;;;;2.10;1.90;;;19.70;59.40;;;;;;5096529;28;20266;-68
2022/10/26 04:19:40;;;;;;;2.30;2.00;;;19.60;59.40;;;;;;5095296;28;20238;-69
2022/10/26 04:22:07;;;;;;;2.15;1.95;;;19.60;59.20;;;;;;5095287;28;20198;-69
2022/10/26 04:24:34;;;;;;;2.13;1.88;;;19.60;59.40;;;;;;5095128;28;20612;-69
2022/10/26 04:27:01;;;;;;;2.30;2.10;;;19.60;59.30;;;;;;5095239;28;20225;-69
2022/10/26 04:29:28;;;;;;;2.25;1.95;;;19.60;59.30;;;;;;5095179;28;20606;-69
2022/10/26 04:31:54;;;;;;;2.33;1.95;;;19.60;59.30;;;;;;5095568;28;20202;-69
2022/10/26 04:34:23;;;;;;;2.85;1.80;;;19.60;59.30;;;;;;5095033;28;20194;-68
2022/10/26 04:36:50;;;;;;;2.00;1.90;;;19.60;59.30;;;;;;5094912;28;20232;-68
2022/10/26 04:39:17;;;;;;;1.98;1.77;;;19.50;59.40;;;;;;5096140;28;20210;-68
2022/10/26 04:41:44;;;;;;;1.80;1.70;;;19.60;59.60;;;;;;5094934;28;20202;-68
2022/10/26 04:44:11;;;;;;;2.28;1.80;;;19.50;59.60;;;;;;5095924;28;20194;-68
2022/10/26 04:46:38;;;;;;;2.17;1.83;;;19.50;59.60;;;;;;5094505;28;20198;-68
2022/10/26 04:49:05;;;;;;;2.45;2.00;;;19.50;59.70;;;;;;5096201;28;20532;-68
2022/10/26 04:51:33;;;;;;;2.28;1.90;;;19.50;59.80;;;;;;5094603;28;20201;-68
2022/10/26 04:54:02;;;;;;;2.67;1.80;;;19.50;59.80;;;;;;5094695;28;20190;-68
2022/10/26 04:56:29;;;;;;;2.38;1.73;;;19.50;59.80;;;;;;5094811;28;20667;-68
2022/10/26 04:58:56;;;;;;;2.25;1.70;;;19.50;59.80;;;;;;5094335;28;20336;-68
2022/10/26 05:01:23;;;;;;;1.67;1.58;;;19.50;59.90;;;;;;5094657;28;20714;-69
2022/10/26 05:03:50;;;;;;;2.08;1.88;;;19.50;59.90;;;;;;5094544;28;20198;-69
2022/10/26 05:06:17;;;;;;;1.75;1.55;;;19.50;59.90;;;;;;5095840;28;20186;-69
2022/10/26 05:08:45;;;;;;;2.42;1.90;;;19.50;59.90;;;;;;5094108;28;20220;-69
2022/10/26 05:11:12;;;;;;;1.88;1.77;;;19.50;59.90;;;;;;5111815;28;20194;-68
2022/10/26 05:13:39;;;;;;;2.15;1.95;;;19.40;59.80;;;;;;5094653;28;20255;-68
2022/10/26 05:16:06;;;;;;;2.55;2.05;;;19.50;59.90;;;;;;5094549;28;20204;-68
2022/10/26 05:18:34;;;;;;;2.22;1.88;;;19.50;60.00;;;;;;5095578;28;20289;-68
2022/10/26 05:21:01;;;;;;;1.92;1.50;;;19.50;60.00;;;;;;5094819;28;20218;-68
2022/10/26 05:23:28;;;;;;;1.90;1.80;;;19.50;60.10;;;;;;5095163;28;20243;-68
2022/10/26 05:25:56;;;;;;;3.17;1.70;;;19.40;60.00;;;;;;5095396;28;20229;-68
2022/10/26 05:28:24;;;;;;;2.15;1.95;;;19.40;60.00;;;;;;5095581;28;20226;-68
2022/10/26 05:30:51;;;;;;;3.80;1.95;;;19.40;60.00;;;;;;5096287;28;20297;-68
2022/10/26 05:33:18;;;;;;;2.85;1.80;;;19.40;60.00;;;;;;5099039;28;20232;-68
2022/10/26 05:35:46;;;;;;;2.00;1.80;;;19.40;60.10;;;;;;5113355;22;20332;-69
2022/10/26 05:38:14;;;;;;;1.65;1.55;;;19.40;60.90;;;;;;5115077;28;20224;-69
2022/10/26 05:40:47;;;;;;;2.63;2.00;;;19.40;60.10;;;;;;5114691;28;20217;-69
2022/10/26 05:43:16;;;;;;;2.83;2.08;;;19.40;60.00;;;;;;5115026;28;20203;-69
2022/10/26 05:45:43;;;;;;;2.72;1.90;;;19.40;60.00;;;;;;5114864;28;20197;-69
2022/10/26 05:48:10;;;;;;;2.30;2.10;;;19.40;60.10;;;;;;5097934;28;20223;-69
2022/10/26 05:50:37;;;;;;;3.50;1.95;;;19.40;60.10;;;;;;5114960;28;20280;-69
2022/10/26 05:53:03;;;;;;;2.35;1.95;;;19.40;60.20;;;;;;5114662;28;20201;-69
2022/10/26 05:55:31;;;;;;;3.10;2.40;;;19.40;60.00;;;;;;5115825;28;20659;-69
2022/10/26 05:57:59;;;;;;;2.22;2.00;;;19.40;60.10;;;;;;5115753;28;20304;-69
2022/10/26 06:00:28;;;;;;;2.15;1.95;;;19.40;60.10;;;;;;5118464;28;20208;-69
2022/10/26 06:03:07;;;;;;;2.13;1.92;;;19.40;60.10;;;;;;5114713;28;20228;-69
2022/10/26 06:05:37;;;;;;;2.08;1.70;;;19.40;60.00;;;;;;5114716;28;20213;-69
2022/10/26 06:08:08;;;;;;;1.75;1.65;;;19.30;60.00;;;;;;5114209;28;20674;-69
2022/10/26 06:10:36;;;;;;;1.73;1.60;;;19.40;60.10;;;;;;5115200;28;20577;-68
2022/10/26 06:13:03;;;;;;;2.58;1.70;;;19.40;60.40;;;;;;5114098;28;20194;-69
2022/10/26 06:15:31;;;;;;;1.83;1.70;;;19.40;60.50;;;;;;5114093;28;20194;-69
2022/10/26 06:18:01;;;;;;;2.33;1.90;;;19.40;60.50;;;;;;5113914;28;20270;-68
2022/10/26 06:20:36;;;;;;;2.70;1.60;;;19.40;60.30;;;;;;5113142;28;20213;-68
2022/10/26 06:23:37;;;;;;;2.83;1.63;;;19.50;60.20;;;;;;5114102;28;20184;-68
2022/10/26 06:26:07;;;;;;;2.20;1.70;;;19.50;60.20;;;;;;5114734;28;20603;-68
2022/10/26 06:28:38;;;;;;;1.92;1.73;;;19.50;60.00;;;;;;5114045;28;20221;-68
2022/10/26 06:31:06;;;;;;;2.03;1.58;;;19.50;59.90;;;;;;5113359;28;20189;-68
2022/10/26 06:33:33;;;;;;;3.28;2.00;;;19.60;60.70;;;;;;5113642;28;20201;-68
2022/10/26 06:36:07;;;;;;;2.28;1.70;;;19.60;60.00;;;;;;5096812;28;20292;-69
2022/10/26 06:38:35;;;;;;;1.70;1.60;;;19.60;60.00;;;;;;5113751;28;20220;-69
2022/10/26 06:41:02;;;;;;;1.67;1.58;;;19.60;59.90;;;;;;5113855;28;20297;-69
2022/10/26 06:43:30;;;;;;;2.45;1.58;;;19.60;59.80;;;;;;5113437;28;20201;-69
2022/10/26 06:46:04;;;;;;;3.25;1.73;;;19.60;60.60;;;;;;5113424;28;20189;-68
2022/10/26 06:48:35;;;;;;;1.90;1.80;;;19.60;59.90;;;;;;5114736;28;20209;-68
2022/10/26 06:51:03;;;;;;;1.75;1.63;;;19.60;59.80;;;;;;5114662;28;20600;-68
2022/10/26 06:53:32;;;;;;;2.33;2.00;;;19.60;59.90;;;;;;5113461;28;20687;-68
2022/10/26 06:56:00;;;;;;;2.17;1.80;;;19.60;59.90;;;;;;5114535;28;20589;-68
2022/10/26 06:58:29;;;;;;;1.85;1.60;;;19.60;59.90;;;;;;5113847;28;20225;-68
2022/10/26 07:00:56;;;;;;;2.13;1.70;;;19.60;59.90;;;;;;5114768;28;20297;-68
2022/10/26 07:03:24;;;;;;;2.08;1.90;;;19.60;59.90;;;;;;5113672;28;20189;-68
2022/10/26 07:05:52;;;;;;;3.03;1.80;;;19.50;59.80;;;;;;5113335;28;20203;-68
2022/10/26 07:08:19;;;;;;;3.60;1.60;;;19.50;59.90;;;;;;5113130;28;20691;-68
2022/10/26 07:10:47;;;;;;;2.00;1.75;;;19.60;60.00;;;;;;5113058;28;20637;-68
2022/10/26 07:13:14;;;;;;;2.00;1.58;;;19.60;60.00;;;;;;5114065;28;20193;-68
2022/10/26 07:15:41;;;;;;;1.60;1.50;;;19.50;59.90;;;;;;5114276;28;20242;-68
2022/10/26 07:18:09;;;;;;;1.70;1.58;;;19.60;60.00;;;;;;5113129;28;20217;-68
2022/10/26 07:20:36;;;;;;;4.72;1.80;;;19.60;60.00;;;;;;5114184;28;20212;-69
2022/10/26 07:23:06;;;;;;;1.80;1.70;;;19.50;60.00;;;;;;5114319;28;20600;-69
2022/10/26 07:25:34;;;;;;;2.13;1.60;;;19.50;60.00;;;;;;5114933;28;20198;-69
2022/10/26 07:28:00;;;;;;;1.70;1.55;;;19.50;60.00;;;;;;5112913;28;20253;-69
2022/10/26 07:30:28;;;;;;;2.58;1.80;;;19.60;60.20;;;;;;5113670;28;20200;-69
2022/10/26 07:32:59;;;;;;;1.60;1.42;;;19.60;60.10;;;;;;5118321;28;20181;-69
2022/10/26 07:35:26;;;;;;;1.70;1.55;;;19.50;60.10;;;;;;5118566;28;20177;-69
2022/10/26 07:37:57;;;;;;;2.35;1.65;;;19.60;60.20;;;;;;5117430;28;20305;-69
2022/10/26 07:40:25;;;;;;;1.52;1.42;;;19.50;60.20;;;;;;5117540;28;20213;-69
2022/10/26 07:42:52;;;;;;;2.10;1.60;;;19.50;60.20;;;;;;5117180;28;20189;-69
2022/10/26 07:45:19;;;;;;;1.85;1.73;;;19.50;60.20;;;;;;5116940;28;20605;-69
2022/10/26 07:47:46;;;;;;;2.42;1.80;;;19.60;60.30;;;;;;5117192;28;20299;-69
2022/10/26 07:50:14;;;;;;;1.83;1.52;;;19.60;60.30;;;;;;5116964;28;20227;-69
2022/10/26 07:52:41;;;;;;;1.42;1.30;;;19.60;60.20;;;;;;5117301;28;20221;-69
2022/10/26 07:55:09;;;;;;;1.67;1.50;;;19.60;60.20;;;;;;5118792;28;20205;-69
2022/10/26 07:57:37;;;;;;;1.40;1.30;;;19.60;60.20;;;;;;5117849;28;20635;-69
2022/10/26 08:00:05;;;;;;;2.20;1.58;;;19.60;60.10;;;;;;5120676;28;20257;-69
2022/10/26 08:02:33;;;;;;;2.42;1.67;;;19.60;60.10;;;;;;5119639;28;20209;-69
2022/10/26 08:05:00;;;;;;;1.52;1.42;;;19.70;60.20;;;;;;5117498;28;20201;-69
2022/10/26 08:07:27;;;;;;;2.05;1.50;;;19.70;60.10;;;;;;5118134;28;20714;-69
2022/10/26 08:09:56;;;;;;;2.58;1.48;;;19.60;60.00;;;;;;5117589;28;20204;-69
2022/10/26 08:12:23;;;;;;;2.20;1.52;;;19.70;60.10;;;;;;5118043;28;20224;-69
2022/10/26 08:14:51;;;;;;;1.83;1.60;;;19.70;60.10;;;;;;5117416;28;20213;-69
2022/10/26 08:17:20;;;;;;;1.95;1.60;;;19.70;60.10;;;;;;5117077;28;20312;-69
2022/10/26 08:19:48;;;;;;;2.08;1.70;;;19.70;60.00;;;;;;5116834;28;20312;-69
2022/10/26 08:22:15;;;;;;;2.08;1.40;;;19.70;60.00;;;;;;5116851;28;20304;-69
2022/10/26 08:24:43;;;;;;;2.92;1.67;;;19.70;60.00;;;;;;5116890;28;20697;-69
2022/10/26 08:27:10;;;;;;;1.70;1.60;;;19.70;60.00;;;;;;5116415;28;20213;-69
2022/10/26 08:29:37;;;;;;;2.90;1.75;;;19.80;60.10;;;;;;5117928;28;20592;-69
2022/10/26 08:32:06;;;;;;;1.55;1.45;;;19.80;60.10;;;;;;5117777;28;20220;-69
2022/10/26 08:34:33;;;;;;;1.63;1.50;;;19.80;60.00;;;;;;5117782;28;20193;-69
2022/10/26 08:37:02;;;;;;;1.60;1.50;;;19.80;60.00;;;;;;5116295;28;20236;-69
2022/10/26 08:39:29;;;;;;;3.47;1.60;;;19.80;60.00;;;;;;5117894;28;20213;-69
2022/10/26 08:42:01;;;;;;;1.60;1.50;;;19.90;60.00;;;;;;5115493;28;20217;-69
2022/10/26 08:44:31;;;;;;;2.75;1.60;;;19.90;59.90;;;;;;5115855;28;20365;-69
2022/10/26 08:46:59;;;;;;;1.83;1.40;;;19.90;59.80;;;;;;5115872;28;20711;-69
2022/10/26 08:49:30;;;;;;;2.15;1.55;;;20.00;59.80;;;;;;5115744;28;20656;-69
2022/10/26 08:51:59;;;;;;;2.13;1.65;;;19.90;59.60;;;;;;5116089;28;20190;-69
2022/10/26 08:54:34;;;;;;;1.95;1.60;;;20.00;59.70;;;;;;5098948;28;20189;-69
2022/10/26 08:57:02;;;;;;;1.80;1.60;;;20.00;59.60;;;;;;5116136;28;20312;-69
2022/10/26 08:59:31;;;;;;;2.10;1.80;;;20.00;59.40;;;;;;5115975;28;20288;-69
2022/10/26 09:02:00;;;;;;;1.90;1.80;;;20.10;59.50;;;;;;5116275;28;20271;-69
2022/10/26 09:04:29;;;;;;;2.42;1.70;;;20.10;59.40;;;;;;5115616;28;20224;-69
2022/10/26 09:06:59;;;;;;;2.00;1.80;;;20.10;59.30;;;;;;5115272;28;20197;-69
2022/10/26 09:09:28;;;;;;;2.70;1.80;;;20.10;59.20;;;;;;5115279;28;20197;-69
2022/10/26 09:12:00;;;;;;;3.63;1.73;;;20.10;59.10;;;;;;5117198;28;20177;-69
2022/10/26 09:14:32;;;;;;;2.70;1.73;;;20.20;59.10;;;;;;5116640;28;20215;-69
2022/10/26 09:17:04;;;;;;;3.20;1.80;;;20.20;59.00;;;;;;5116474;28;20575;-69
2022/10/26 09:19:41;;;;;;;1.70;1.60;;;20.30;59.10;;;;;;5114995;28;20204;-69
2022/10/26 09:22:11;;;;;;;1.77;1.67;;;20.30;59.00;;;;;;5115524;28;20208;-69
2022/10/26 09:24:39;;;;;;;3.22;2.00;;;20.40;59.00;;;;;;5116450;28;20655;-69
2022/10/26 09:27:10;;;;;;;3.42;1.90;;;20.40;58.90;;;;;;5114840;28;20217;-69
2022/10/26 09:29:40;;;;;;;2.58;1.70;;;20.50;58.70;;;;;;5116502;28;20227;-69
2022/10/26 09:32:09;;;;;;;2.50;1.50;;;20.60;58.60;;;;;;5114750;28;20202;-69
2022/10/26 09:34:40;;;;;;;1.73;1.63;;;20.60;58.50;;;;;;5114685;28;20189;-69
2022/10/26 09:37:13;;;;;;;2.95;1.88;;;20.70;58.30;;;;;;5114902;28;20225;-69
2022/10/26 09:39:42;;;;;;;2.33;1.60;;;20.70;58.20;;;;;;5114730;28;20664;-69
2022/10/26 09:42:14;;;;;;;1.90;1.50;;;20.80;58.10;;;;;;5115627;28;20206;-69
2022/10/26 09:44:44;;;;;;;2.33;1.80;;;21.00;58.20;;;;;;5115957;28;20192;-69
2022/10/26 09:47:14;;;;;;;1.50;1.40;;;21.10;58.00;;;;;;5114716;28;20682;-69
2022/10/26 09:49:47;;;;;;;1.50;1.40;;;21.30;57.60;;;;;;5115961;28;20651;-69
2022/10/26 09:52:14;;;;;;;1.90;1.60;;;21.50;56.90;;;;;;5114513;28;20600;-69
2022/10/26 09:54:41;;;;;;;2.55;1.58;;;21.60;56.50;;;;;;5114760;28;20194;-69
2022/10/26 09:57:08;;;;;;;2.15;1.58;;;21.70;56.40;;;;;;5114128;28;20270;-68
2022/10/26 09:59:37;;;;;;;2.38;1.65;;;21.80;56.00;;;;;;5114207;28;20193;-68
2022/10/26 10:02:33;;;;;;;1.50;1.33;;;21.80;56.00;;;;;;5114268;28;20224;-68
2022/10/26 10:05:02;;;;;;;1.50;1.40;;;21.80;55.90;;;;;;5115645;28;20185;-68
2022/10/26 10:07:29;;;;;;;1.50;1.40;;;21.80;55.70;;;;;;5114193;28;20282;-69
2022/10/26 10:10:14;;;;;;;1.50;1.40;;;21.80;55.80;;;;;;5115039;28;20201;-69
2022/10/26 10:12:41;;;;;;;1.65;1.42;;;21.80;56.00;;;;;;5114636;28;20197;-69
2022/10/26 10:15:16;;;;;;;1.90;1.40;;;21.70;55.90;;;;;;5114921;28;20283;-69
2022/10/26 10:17:44;;;;;;;1.58;1.48;;;21.70;55.90;;;;;;5114303;28;20270;-69
2022/10/26 10:20:19;;;;;;;1.52;1.40;;;21.70;55.90;;;;;;5114162;28;20205;-69
2022/10/26 10:22:56;;;;;;;1.60;1.33;;;21.70;55.90;;;;;;5114014;28;20213;-69
2022/10/26 10:25:33;;;;;;;1.40;1.30;;;21.60;55.80;;;;;;5114254;28;20231;-69
2022/10/26 10:28:01;;;;;;;1.42;1.33;;;21.60;55.80;;;;;;5114449;28;20225;-69
2022/10/26 10:30:29;;;;;;;1.50;1.40;;;21.60;56.50;;;;;;5114877;28;20194;-69
2022/10/26 10:33:07;;;;;;;1.52;1.42;;;21.60;55.80;;;;;;5116779;28;20250;-69
2022/10/26 10:35:35;;;;;;;1.60;1.38;;;21.60;56.60;;;;;;5114130;28;20203;-69
2022/10/26 10:38:05;;;;;;;1.50;1.40;;;21.60;55.90;;;;;;5115662;28;20241;-69
2022/10/26 10:40:32;;;;;;;1.50;1.40;;;21.60;55.90;;;;;;5115122;28;20199;-67
2022/10/26 10:43:04;;;;;;;1.33;1.23;;;21.70;55.90;;;;;;5113848;28;20213;-67
2022/10/26 10:45:31;;;;;;;1.48;1.38;;;21.80;55.80;;;;;;5113865;28;20197;-67
2022/10/26 10:47:59;;;;;;;1.40;1.30;;;21.80;55.50;;;;;;5115204;28;20213;-67
2022/10/26 10:50:26;;;;;;;1.58;1.48;;;21.80;55.40;;;;;;5114104;28;20227;-67
2022/10/26 10:53:10;;;;;;;1.38;1.27;;;21.80;55.30;;;;;;5113781;28;20189;-67
2022/10/26 10:55:37;;;;;;;1.50;1.40;;;21.90;55.40;;;;;;5113802;28;20199;-67
2022/10/26 10:58:08;;;;;;;1.60;1.50;;;21.90;55.30;;;;;;5113750;28;20281;-67
2022/10/26 11:00:36;;;;;;;1.38;1.25;;;21.90;55.30;;;;;;5113855;28;20189;-67
2022/10/26 11:03:33;;;;;;;1.25;1.20;;;21.90;55.30;;;;;;5114043;28;20331;-67
2022/10/26 11:06:04;;;;;;;1.52;1.42;;;21.90;55.40;;;;;;5041611;28;20200;-68
2022/10/26 11:08:35;;;;;;;1.50;1.40;;;21.90;55.50;;;;;;5116221;28;20220;-67
2022/10/26 11:11:04;;;;;;;1.10;1.10;;;21.90;55.60;;;;;;5116507;28;20194;-68
2022/10/26 11:13:34;;;;;;;1.40;1.30;;;21.90;55.60;;;;;;5115686;28;20227;-67
2022/10/26 11:16:03;;;;;;;1.92;1.48;;;21.90;55.40;;;;;;5114183;28;20293;-68
2022/10/26 11:18:31;;;;;;;1.30;1.20;;;22.00;55.50;;;;;;5112865;28;20707;-68
2022/10/26 11:21:01;;;;;;;1.33;1.23;;;22.00;55.40;;;;;;5114517;28;20212;-68
2022/10/26 11:23:34;;;;;;;1.33;1.23;;;22.10;55.40;;;;;;5113032;28;20190;-68
2022/10/26 11:26:04;;;;;;;1.83;1.40;;;22.10;55.20;;;;;;5113125;28;20186;-68
2022/10/26 11:28:37;;;;;;;1.63;1.30;;;22.20;55.20;;;;;;5114176;28;20558;-68
2022/10/26 11:31:07;;;;;;;1.15;1.15;;;22.20;55.20;;;;;;5113111;28;20189;-68
2022/10/26 11:33:36;;;;;;;1.35;1.25;;;22.20;55.10;;;;;;5112932;28;20194;-68
2022/10/26 11:36:06;;;;;;;1.33;1.23;;;22.20;55.00;;;;;;5114738;28;20204;-68
2022/10/26 11:38:37;;;;;;;1.40;1.30;;;22.20;54.90;;;;;;5096841;28;20221;-68
2022/10/26 11:41:06;;;;;;;1.48;1.38;;;22.30;55.00;;;;;;5113111;28;20221;-68
2022/10/26 11:43:35;;;;;;;1.60;1.50;;;22.20;54.80;;;;;;5113477;28;20220;-68
2022/10/26 11:46:04;;;;;;;1.40;1.30;;;22.30;54.80;;;;;;5113786;28;20208;-68
2022/10/26 11:48:34;;;;;;;1.10;1.10;;;22.30;54.80;;;;;;5112619;28;20301;-68
2022/10/26 11:51:01;;;;;;;1.42;1.33;;;22.30;54.70;;;;;;5112791;28;20674;-68
2022/10/26 11:53:29;;;;;;;1.70;1.30;;;22.30;54.70;;;;;;5112430;28;20193;-68
2022/10/26 11:55:58;;;;;;;1.67;1.50;;;22.30;54.70;;;;;;5112560;28;20194;-68
2022/10/26 11:58:27;;;;;;;1.40;1.23;;;22.30;54.70;;;;;;5112633;28;20771;-68
2022/10/26 12:00:56;;;;;;;1.45;1.35;;;22.30;54.70;;;;;;5112822;28;20197;-68
2022/10/26 12:03:25;;;;;;;1.48;1.27;;;22.40;54.70;;;;;;5113164;28;20213;-68
2022/10/26 12:05:53;;;;;;;1.25;1.15;;;22.30;54.70;;;;;;5112599;28;20217;-68
2022/10/26 12:08:23;;;;;;;1.30;1.20;;;22.30;54.70;;;;;;5112431;28;20237;-68
2022/10/26 12:10:52;;;;;;;1.33;1.23;;;22.40;54.70;;;;;;5112629;28;20198;-68
2022/10/26 12:13:24;;;;;;;1.30;1.20;;;22.40;54.70;;;;;;5114042;28;20239;-68
2022/10/26 12:15:54;;;;;;;1.35;1.25;;;22.40;54.70;;;;;;5113070;28;20193;-68
2022/10/26 12:18:24;;;;;;;1.35;1.25;;;22.40;54.70;;;;;;5116025;28;20208;-68
2022/10/26 12:21:01;;;;;;;1.45;1.35;;;22.40;54.70;;;;;;5117055;28;20234;-67
2022/10/26 12:23:28;;;;;;;1.30;1.10;;;22.30;54.80;;;;;;5116388;28;20577;-67
2022/10/26 12:26:29;;;;;;;3.30;1.85;;;22.40;55.00;;;;;;5116448;28;20193;-67
2022/10/26 12:29:38;;;;;;;3.55;2.13;;;22.30;55.40;;;;;;5116094;28;20614;-67
2022/10/26 12:32:49;;;;;;;3.10;1.90;;;22.20;55.00;;;;;;5114770;28;20204;-68
2022/10/26 12:35:39;;;;;;;4.85;2.10;;;22.20;55.50;;;;;;5116591;28;20189;-68
2022/10/26 12:38:47;;;;;;;4.93;2.10;;;22.10;55.60;;;;;;5116637;28;20225;-68
2022/10/26 12:41:22;;;;;;;4.32;1.70;;;22.20;55.80;;;;;;5118748;28;20610;-68
2022/10/26 12:43:49;;;;;;;7.00;2.13;;;22.10;55.90;;;;;;5117532;28;20212;-68
2022/10/26 12:46:44;;;;;;;7.07;2.10;;;22.00;55.60;;;;;;5117007;28;20224;-68
2022/10/26 12:49:56;;;;;;;6.28;2.17;;;22.10;55.80;;;;;;5116922;28;20284;-68
2022/10/26 12:52:33;;;;;;;10.48;2.33;;;22.00;55.80;;;;;;5116538;28;20284;-68
2022/10/26 12:55:33;;;;;;;4.95;1.90;;;22.00;56.60;;;;;;5117644;28;20257;-69
2022/10/26 12:58:12;;;;;;;3.53;1.92;;;22.00;56.50;;;;;;5117555;28;20217;-68
2022/10/26 13:00:41;;;;;;;5.28;2.00;;;22.00;56.50;;;;;;5116958;28;20542;-68
2022/10/26 13:03:14;;;;;;;6.35;2.00;;;22.00;56.60;;;;;;5117917;28;20621;-68